sensor_id;sensor_type;location;lat;lon;timestamp;pressure;altitude;pressure_sealevel;temperature;humidity
15817;BME280;8009;50.070;8.232;2023-05-01T00:02:20;100057.59;;;14.06;50.30
15817;BME280;8009;50.070;8.232;2023-05-01T00:04:48;100054.47;;;14.11;51.13
15817;BME280;8009;50.070;8.232;2023-05-01T00:07:19;100054.13;;;13.95;51.20
15817;BME280;8009;50.070;8.232;2023-05-01T00:09:49;100048.50;;;13.86;50.45
15817;BME280;8009;50.070;8.232;2023-05-01T00:12:20;100044.13;;;13.95;52.14
15817;BME280;8009;50.070;8.232;2023-05-01T00:14:49;100044.44;;;14.11;51.31
15817;BME280;8009;50.070;8.232;2023-05-01T00:17:17;100041.13;;;13.98;51.52
15817;BME280;8009;50.070;8.232;2023-05-01T00:19:50;100041.06;;;13.88;52.47
15817;BME280;8009;50.070;8.232;2023-05-01T00:22:18;100037.91;;;13.74;53.02
15817;BME280;8009;50.070;8.232;2023-05-01T00:24:47;100038.94;;;13.61;53.04
15817;BME280;8009;50.070;8.232;2023-05-01T00:27:16;100033.44;;;13.73;52.54
15817;BME280;8009;50.070;8.232;2023-05-01T00:29:47;100031.09;;;13.89;51.63
15817;BME280;8009;50.070;8.232;2023-05-01T00:32:15;100025.38;;;13.61;52.23
15817;BME280;8009;50.070;8.232;2023-05-01T00:34:43;100019.88;;;13.73;52.59
15817;BME280;8009;50.070;8.232;2023-05-01T00:37:13;100015.44;;;14.02;51.28
15817;BME280;8009;50.070;8.232;2023-05-01T00:39:42;100014.41;;;13.94;51.40
15817;BME280;8009;50.070;8.232;2023-05-01T00:42:10;100008.28;;;14.01;51.21
15817;BME280;8009;50.070;8.232;2023-05-01T00:44:38;100011.19;;;13.79;51.87
15817;BME280;8009;50.070;8.232;2023-05-01T00:47:10;100007.66;;;13.88;52.26
15817;BME280;8009;50.070;8.232;2023-05-01T00:49:41;100009.25;;;13.90;51.91
15817;BME280;8009;50.070;8.232;2023-05-01T00:52:10;100010.53;;;13.86;51.93
15817;BME280;8009;50.070;8.232;2023-05-01T00:54:38;100002.69;;;13.93;51.87
15817;BME280;8009;50.070;8.232;2023-05-01T00:57:07;100004.50;;;13.83;52.94
15817;BME280;8009;50.070;8.232;2023-05-01T00:59:35;100005.25;;;13.95;53.05
15817;BME280;8009;50.070;8.232;2023-05-01T01:02:03;99996.00;;;13.36;55.59
15817;BME280;8009;50.070;8.232;2023-05-01T01:04:34;99992.75;;;13.73;53.38
15817;BME280;8009;50.070;8.232;2023-05-01T01:07:08;99987.94;;;13.25;54.03
15817;BME280;8009;50.070;8.232;2023-05-01T01:09:43;99996.34;;;12.89;56.37
15817;BME280;8009;50.070;8.232;2023-05-01T01:12:22;99994.91;;;13.06;57.37
15817;BME280;8009;50.070;8.232;2023-05-01T01:14:57;99985.44;;;13.01;56.42
15817;BME280;8009;50.070;8.232;2023-05-01T01:17:29;99984.38;;;13.24;54.69
15817;BME280;8009;50.070;8.232;2023-05-01T01:20:16;99980.22;;;12.67;57.52
15817;BME280;8009;50.070;8.232;2023-05-01T01:22:52;99977.13;;;13.13;55.40
15817;BME280;8009;50.070;8.232;2023-05-01T01:28:50;99968.72;;;12.96;54.97
15817;BME280;8009;50.070;8.232;2023-05-01T01:31:28;99970.84;;;13.34;53.30
15817;BME280;8009;50.070;8.232;2023-05-01T01:34:03;99962.31;;;13.17;55.42
15817;BME280;8009;50.070;8.232;2023-05-01T01:36:38;99959.28;;;13.11;53.76
15817;BME280;8009;50.070;8.232;2023-05-01T01:39:13;99959.81;;;13.26;53.84
15817;BME280;8009;50.070;8.232;2023-05-01T01:41:48;99960.34;;;13.40;54.51
15817;BME280;8009;50.070;8.232;2023-05-01T01:44:23;99953.72;;;13.33;55.20
15817;BME280;8009;50.070;8.232;2023-05-01T01:46:53;99957.75;;;13.39;54.50
15817;BME280;8009;50.070;8.232;2023-05-01T01:49:26;99956.75;;;13.19;54.81
15817;BME280;8009;50.070;8.232;2023-05-01T01:51:58;99954.03;;;13.19;53.61
15817;BME280;8009;50.070;8.232;2023-05-01T01:54:32;99956.97;;;13.27;54.55
15817;BME280;8009;50.070;8.232;2023-05-01T01:57:01;99948.16;;;13.14;54.53
15817;BME280;8009;50.070;8.232;2023-05-01T01:59:33;99950.44;;;13.09;54.97
15817;BME280;8009;50.070;8.232;2023-05-01T02:02:02;99948.53;;;12.47;57.21
15817;BME280;8009;50.070;8.232;2023-05-01T02:04:34;99951.09;;;12.59;56.92
15817;BME280;8009;50.070;8.232;2023-05-01T02:07:03;99951.63;;;12.10;58.66
15817;BME280;8009;50.070;8.232;2023-05-01T02:09:34;99946.16;;;12.53;57.24
15817;BME280;8009;50.070;8.232;2023-05-01T02:12:04;99944.78;;;12.59;57.32
15817;BME280;8009;50.070;8.232;2023-05-01T02:14:33;99945.13;;;12.65;56.87
15817;BME280;8009;50.070;8.232;2023-05-01T02:17:02;99948.63;;;12.56;57.64
15817;BME280;8009;50.070;8.232;2023-05-01T02:19:36;99947.94;;;12.43;59.16
15817;BME280;8009;50.070;8.232;2023-05-01T02:22:06;99945.72;;;12.48;58.64
15817;BME280;8009;50.070;8.232;2023-05-01T02:24:36;99946.47;;;12.39;57.55
15817;BME280;8009;50.070;8.232;2023-05-01T02:27:09;99938.09;;;12.42;57.64
15817;BME280;8009;50.070;8.232;2023-05-01T02:29:38;99950.13;;;12.49;55.65
15817;BME280;8009;50.070;8.232;2023-05-01T02:32:07;99946.78;;;12.57;57.33
15817;BME280;8009;50.070;8.232;2023-05-01T02:34:39;99945.31;;;12.09;57.95
15817;BME280;8009;50.070;8.232;2023-05-01T02:37:09;99951.22;;;12.26;57.24
15817;BME280;8009;50.070;8.232;2023-05-01T02:39:38;99943.16;;;11.69;59.29
15817;BME280;8009;50.070;8.232;2023-05-01T02:42:08;99942.31;;;11.91;58.46
15817;BME280;8009;50.070;8.232;2023-05-01T02:44:52;99938.22;;;11.97;59.50
15817;BME280;8009;50.070;8.232;2023-05-01T02:47:22;99938.75;;;11.68;59.50
15817;BME280;8009;50.070;8.232;2023-05-01T02:50:10;99932.72;;;11.87;59.33
15817;BME280;8009;50.070;8.232;2023-05-01T02:52:42;99936.75;;;11.82;60.10
15817;BME280;8009;50.070;8.232;2023-05-01T02:55:11;99930.91;;;12.20;58.14
15817;BME280;8009;50.070;8.232;2023-05-01T02:57:40;99933.31;;;12.02;58.54
15817;BME280;8009;50.070;8.232;2023-05-01T03:00:09;99930.84;;;11.99;58.70
15817;BME280;8009;50.070;8.232;2023-05-01T03:02:38;99934.69;;;11.85;59.26
15817;BME280;8009;50.070;8.232;2023-05-01T03:05:10;99926.19;;;12.33;58.12
15817;BME280;8009;50.070;8.232;2023-05-01T03:07:38;99933.66;;;12.09;59.10
15817;BME280;8009;50.070;8.232;2023-05-01T03:10:07;99934.81;;;11.84;59.39
15817;BME280;8009;50.070;8.232;2023-05-01T03:12:35;99929.56;;;11.49;60.32
15817;BME280;8009;50.070;8.232;2023-05-01T03:15:05;99927.72;;;11.49;60.00
15817;BME280;8009;50.070;8.232;2023-05-01T03:17:33;99924.38;;;11.57;60.94
15817;BME280;8009;50.070;8.232;2023-05-01T03:20:02;99927.34;;;11.42;61.22
15817;BME280;8009;50.070;8.232;2023-05-01T03:22:33;99928.31;;;11.53;59.81
15817;BME280;8009;50.070;8.232;2023-05-01T03:25:01;99919.59;;;11.38;60.71
15817;BME280;8009;50.070;8.232;2023-05-01T03:27:30;99926.84;;;11.15;62.66
15817;BME280;8009;50.070;8.232;2023-05-01T03:29:58;99919.06;;;11.55;60.41
15817;BME280;8009;50.070;8.232;2023-05-01T03:32:26;99924.38;;;11.57;60.55
15817;BME280;8009;50.070;8.232;2023-05-01T03:34:56;99919.81;;;11.68;60.24
15817;BME280;8009;50.070;8.232;2023-05-01T03:37:25;99924.13;;;11.04;62.52
15817;BME280;8009;50.070;8.232;2023-05-01T03:39:56;99912.78;;;10.87;63.18
15817;BME280;8009;50.070;8.232;2023-05-01T03:42:24;99923.28;;;11.14;62.06
15817;BME280;8009;50.070;8.232;2023-05-01T03:44:52;99910.94;;;11.66;59.93
15817;BME280;8009;50.070;8.232;2023-05-01T03:47:21;99913.03;;;11.63;60.55
15817;BME280;8009;50.070;8.232;2023-05-01T03:49:49;99909.84;;;11.69;59.76
15817;BME280;8009;50.070;8.232;2023-05-01T03:52:17;99901.13;;;11.88;59.09
15817;BME280;8009;50.070;8.232;2023-05-01T03:54:49;99900.88;;;11.80;59.88
15817;BME280;8009;50.070;8.232;2023-05-01T03:57:20;99906.56;;;11.54;60.00
15817;BME280;8009;50.070;8.232;2023-05-01T03:59:48;99902.47;;;11.71;60.14
15817;BME280;8009;50.070;8.232;2023-05-01T04:02:16;99909.50;;;11.17;61.86
15817;BME280;8009;50.070;8.232;2023-05-01T04:04:45;99906.09;;;11.27;61.97
15817;BME280;8009;50.070;8.232;2023-05-01T04:07:13;99906.47;;;11.22;61.92
15817;BME280;8009;50.070;8.232;2023-05-01T04:09:41;99906.41;;;10.88;62.07
15817;BME280;8009;50.070;8.232;2023-05-01T04:12:10;99904.09;;;11.29;61.67
15817;BME280;8009;50.070;8.232;2023-05-01T04:14:41;99898.81;;;11.61;60.39
15817;BME280;8009;50.070;8.232;2023-05-01T04:17:11;99894.03;;;11.19;61.94
15817;BME280;8009;50.070;8.232;2023-05-01T04:19:39;99904.22;;;11.61;60.54
15817;BME280;8009;50.070;8.232;2023-05-01T04:22:08;99904.38;;;11.14;62.05
15817;BME280;8009;50.070;8.232;2023-05-01T04:24:36;99901.28;;;11.19;62.03
15817;BME280;8009;50.070;8.232;2023-05-01T04:27:05;99897.44;;;11.44;61.38
15817;BME280;8009;50.070;8.232;2023-05-01T04:29:33;99903.22;;;11.06;62.60
15817;BME280;8009;50.070;8.232;2023-05-01T04:32:04;99900.78;;;11.47;61.39
15817;BME280;8009;50.070;8.232;2023-05-01T04:34:32;99907.25;;;11.79;60.11
15817;BME280;8009;50.070;8.232;2023-05-01T04:37:01;99906.06;;;11.49;60.90
15817;BME280;8009;50.070;8.232;2023-05-01T04:39:31;99911.81;;;11.56;60.96
15817;BME280;8009;50.070;8.232;2023-05-01T04:42:00;99907.53;;;11.53;61.81
15817;BME280;8009;50.070;8.232;2023-05-01T04:44:29;99907.41;;;11.10;62.73
15817;BME280;8009;50.070;8.232;2023-05-01T04:46:59;99908.63;;;11.17;62.05
15817;BME280;8009;50.070;8.232;2023-05-01T04:49:30;99900.72;;;11.92;60.74
15817;BME280;8009;50.070;8.232;2023-05-01T04:51:59;99898.69;;;11.51;61.12
15817;BME280;8009;50.070;8.232;2023-05-01T04:54:27;99904.59;;;11.22;62.13
15817;BME280;8009;50.070;8.232;2023-05-01T04:56:56;99905.94;;;11.28;62.79
15817;BME280;8009;50.070;8.232;2023-05-01T05:02:39;99905.94;;;11.62;61.33
15817;BME280;8009;50.070;8.232;2023-05-01T05:05:11;99908.34;;;11.99;60.57
15817;BME280;8009;50.070;8.232;2023-05-01T05:07:39;99899.97;;;12.34;59.05
15817;BME280;8009;50.070;8.232;2023-05-01T05:10:08;99904.50;;;12.01;60.64
15817;BME280;8009;50.070;8.232;2023-05-01T05:12:36;99901.72;;;12.24;59.31
15817;BME280;8009;50.070;8.232;2023-05-01T05:15:05;99908.91;;;12.46;58.69
15817;BME280;8009;50.070;8.232;2023-05-01T05:17:34;99906.00;;;12.37;57.35
15817;BME280;8009;50.070;8.232;2023-05-01T05:23:09;99914.16;;;12.26;59.89
15817;BME280;8009;50.070;8.232;2023-05-01T05:25:37;99911.16;;;12.40;59.74
15817;BME280;8009;50.070;8.232;2023-05-01T05:28:06;99905.50;;;12.64;59.01
15817;BME280;8009;50.070;8.232;2023-05-01T05:30:34;99898.56;;;12.72;57.01
15817;BME280;8009;50.070;8.232;2023-05-01T05:33:03;99906.38;;;12.33;59.79
15817;BME280;8009;50.070;8.232;2023-05-01T05:35:31;99896.91;;;12.59;58.41
15817;BME280;8009;50.070;8.232;2023-05-01T05:38:00;99899.94;;;12.66;57.95
15817;BME280;8009;50.070;8.232;2023-05-01T05:40:31;99894.28;;;13.00;56.74
15817;BME280;8009;50.070;8.232;2023-05-01T05:42:59;99898.00;;;12.99;56.74
15817;BME280;8009;50.070;8.232;2023-05-01T05:45:31;99898.88;;;12.99;55.58
15817;BME280;8009;50.070;8.232;2023-05-01T05:48:00;99894.59;;;13.27;55.23
15817;BME280;8009;50.070;8.232;2023-05-01T05:50:55;99888.13;;;13.18;53.36
15817;BME280;8009;50.070;8.232;2023-05-01T05:53:24;99885.41;;;13.18;53.64
15817;BME280;8009;50.070;8.232;2023-05-01T05:55:54;99884.72;;;13.47;54.05
15817;BME280;8009;50.070;8.232;2023-05-01T05:58:23;99882.69;;;13.39;55.38
15817;BME280;8009;50.070;8.232;2023-05-01T06:00:51;99888.97;;;13.40;54.16
15817;BME280;8009;50.070;8.232;2023-05-01T06:03:20;99894.56;;;13.48;53.78
15817;BME280;8009;50.070;8.232;2023-05-01T06:05:48;99888.81;;;13.41;51.54
15817;BME280;8009;50.070;8.232;2023-05-01T06:08:17;99889.72;;;13.52;51.81
15817;BME280;8009;50.070;8.232;2023-05-01T06:10:46;99890.44;;;13.54;51.79
15817;BME280;8009;50.070;8.232;2023-05-01T06:13:17;99884.47;;;13.60;51.16
15817;BME280;8009;50.070;8.232;2023-05-01T06:19:04;99888.50;;;13.75;50.61
15817;BME280;8009;50.070;8.232;2023-05-01T06:21:36;99887.56;;;14.05;50.63
15817;BME280;8009;50.070;8.232;2023-05-01T06:24:05;99883.69;;;13.98;51.30
15817;BME280;8009;50.070;8.232;2023-05-01T06:26:33;99878.41;;;13.97;50.47
15817;BME280;8009;50.070;8.232;2023-05-01T06:29:04;99879.97;;;14.19;49.18
15817;BME280;8009;50.070;8.232;2023-05-01T06:31:33;99875.00;;;14.24;49.62
15817;BME280;8009;50.070;8.232;2023-05-01T06:34:01;99871.56;;;14.41;47.90
15817;BME280;8009;50.070;8.232;2023-05-01T06:36:29;99862.56;;;14.60;47.34
15817;BME280;8009;50.070;8.232;2023-05-01T06:38:58;99873.72;;;14.28;48.53
15817;BME280;8009;50.070;8.232;2023-05-01T06:41:26;99860.41;;;14.25;47.74
15817;BME280;8009;50.070;8.232;2023-05-01T06:43:55;99862.84;;;14.47;47.24
15817;BME280;8009;50.070;8.232;2023-05-01T06:46:28;99866.69;;;14.64;47.33
15817;BME280;8009;50.070;8.232;2023-05-01T06:48:57;99868.41;;;14.75;47.83
15817;BME280;8009;50.070;8.232;2023-05-01T06:51:25;99864.38;;;14.79;46.89
15817;BME280;8009;50.070;8.232;2023-05-01T06:53:54;99862.56;;;14.60;46.10
15817;BME280;8009;50.070;8.232;2023-05-01T06:56:23;99866.94;;;15.00;46.21
15817;BME280;8009;50.070;8.232;2023-05-01T06:58:53;99861.41;;;15.19;45.81
15817;BME280;8009;50.070;8.232;2023-05-01T07:01:22;99859.06;;;15.34;45.39
15817;BME280;8009;50.070;8.232;2023-05-01T07:03:53;99855.22;;;15.27;45.94
15817;BME280;8009;50.070;8.232;2023-05-01T07:06:21;99855.47;;;15.33;45.50
15817;BME280;8009;50.070;8.232;2023-05-01T07:08:50;99856.69;;;15.49;45.57
15817;BME280;8009;50.070;8.232;2023-05-01T07:11:18;99845.97;;;15.75;44.47
15817;BME280;8009;50.070;8.232;2023-05-01T07:13:47;99856.09;;;15.18;45.57
15817;BME280;8009;50.070;8.232;2023-05-01T07:16:15;99854.69;;;15.14;45.15
15817;BME280;8009;50.070;8.232;2023-05-01T07:18:44;99848.97;;;15.07;46.52
15817;BME280;8009;50.070;8.232;2023-05-01T07:21:15;99851.69;;;15.07;46.79
15817;BME280;8009;50.070;8.232;2023-05-01T07:23:44;99856.00;;;15.09;45.66
15817;BME280;8009;50.070;8.232;2023-05-01T07:26:12;99848.97;;;15.07;45.80
15817;BME280;8009;50.070;8.232;2023-05-01T07:28:40;99852.94;;;15.22;47.19
15817;BME280;8009;50.070;8.232;2023-05-01T07:31:09;99851.50;;;15.28;46.54
15817;BME280;8009;50.070;8.232;2023-05-01T07:33:37;99843.06;;;15.21;48.16
15817;BME280;8009;50.070;8.232;2023-05-01T07:36:06;99839.50;;;15.21;48.04
15817;BME280;8009;50.070;8.232;2023-05-01T07:38:37;99846.91;;;15.28;46.76
15817;BME280;8009;50.070;8.232;2023-05-01T07:41:05;99838.06;;;15.26;45.98
15817;BME280;8009;50.070;8.232;2023-05-01T07:43:33;99849.53;;;15.10;46.54
15817;BME280;8009;50.070;8.232;2023-05-01T07:46:03;99850.63;;;15.27;45.84
15817;BME280;8009;50.070;8.232;2023-05-01T07:48:31;99845.28;;;15.08;46.43
15817;BME280;8009;50.070;8.232;2023-05-01T07:51:01;99848.13;;;15.06;46.04
15817;BME280;8009;50.070;8.232;2023-05-01T07:53:29;99847.09;;;15.17;46.21
15817;BME280;8009;50.070;8.232;2023-05-01T07:56:07;99842.69;;;15.44;45.97
15817;BME280;8009;50.070;8.232;2023-05-01T07:58:36;99850.47;;;15.29;45.91
15817;BME280;8009;50.070;8.232;2023-05-01T08:01:05;99847.63;;;15.58;46.46
15817;BME280;8009;50.070;8.232;2023-05-01T08:03:34;99848.09;;;15.53;45.70
15817;BME280;8009;50.070;8.232;2023-05-01T08:06:02;99845.47;;;15.62;45.41
15817;BME280;8009;50.070;8.232;2023-05-01T08:08:33;99836.66;;;15.77;45.10
15817;BME280;8009;50.070;8.232;2023-05-01T08:11:01;99839.00;;;15.90;45.02
15817;BME280;8009;50.070;8.232;2023-05-01T08:13:34;99841.56;;;15.92;46.18
15817;BME280;8009;50.070;8.232;2023-05-01T08:16:03;99841.78;;;15.80;45.99
15817;BME280;8009;50.070;8.232;2023-05-01T08:18:31;99841.31;;;16.21;44.82
15817;BME280;8009;50.070;8.232;2023-05-01T08:21:02;99842.50;;;16.00;44.27
15817;BME280;8009;50.070;8.232;2023-05-01T08:23:30;99833.81;;;16.15;43.93
15817;BME280;8009;50.070;8.232;2023-05-01T08:25:59;99832.78;;;16.16;44.52
15817;BME280;8009;50.070;8.232;2023-05-01T08:28:27;99819.91;;;16.44;44.67
15817;BME280;8009;50.070;8.232;2023-05-01T08:30:58;99823.81;;;16.23;45.69
15817;BME280;8009;50.070;8.232;2023-05-01T08:33:28;99823.66;;;16.25;43.90
15817;BME280;8009;50.070;8.232;2023-05-01T08:35:56;99822.56;;;16.18;43.72
15817;BME280;8009;50.070;8.232;2023-05-01T08:38:24;99826.47;;;16.15;44.20
15817;BME280;8009;50.070;8.232;2023-05-01T08:40:53;99828.28;;;16.06;44.59
15817;BME280;8009;50.070;8.232;2023-05-01T08:43:24;99827.34;;;16.16;46.62
15817;BME280;8009;50.070;8.232;2023-05-01T08:45:53;99820.88;;;16.17;45.63
15817;BME280;8009;50.070;8.232;2023-05-01T08:48:27;99826.72;;;16.22;44.82
15817;BME280;8009;50.070;8.232;2023-05-01T08:57:33;99819.06;;;16.25;45.46
15817;BME280;8009;50.070;8.232;2023-05-01T09:03:21;99814.56;;;16.34;46.49
15817;BME280;8009;50.070;8.232;2023-05-01T09:05:52;99808.63;;;16.39;45.55
15817;BME280;8009;50.070;8.232;2023-05-01T09:08:20;99813.47;;;16.45;44.92
15817;BME280;8009;50.070;8.232;2023-05-01T09:11:14;99810.25;;;16.49;44.44
15817;BME280;8009;50.070;8.232;2023-05-01T09:13:42;99811.53;;;16.37;46.08
15817;BME280;8009;50.070;8.232;2023-05-01T09:16:11;99805.16;;;16.98;44.13
15817;BME280;8009;50.070;8.232;2023-05-01T09:18:49;99808.50;;;17.18;44.10
15817;BME280;8009;50.070;8.232;2023-05-01T09:21:26;99807.09;;;17.48;42.27
15817;BME280;8009;50.070;8.232;2023-05-01T09:23:56;99808.59;;;17.09;44.40
15817;BME280;8009;50.070;8.232;2023-05-01T09:26:24;99798.69;;;17.92;43.63
15817;BME280;8009;50.070;8.232;2023-05-01T09:28:53;99796.47;;;18.69;42.41
15817;BME280;8009;50.070;8.232;2023-05-01T09:31:23;99797.50;;;18.68;42.09
15817;BME280;8009;50.070;8.232;2023-05-01T09:33:54;99801.78;;;18.38;41.40
15817;BME280;8009;50.070;8.232;2023-05-01T09:36:26;99803.00;;;18.52;40.54
15817;BME280;8009;50.070;8.232;2023-05-01T09:38:56;99792.91;;;18.03;41.87
15817;BME280;8009;50.070;8.232;2023-05-01T09:41:25;99792.88;;;18.77;40.44
15817;BME280;8009;50.070;8.232;2023-05-01T09:43:57;99793.91;;;19.40;41.69
15817;BME280;8009;50.070;8.232;2023-05-01T09:46:40;99791.25;;;19.23;40.35
15817;BME280;8009;50.070;8.232;2023-05-01T09:49:08;99788.66;;;19.69;37.73
15817;BME280;8009;50.070;8.232;2023-05-01T09:51:39;99785.09;;;19.92;38.11
15817;BME280;8009;50.070;8.232;2023-05-01T09:54:19;99781.53;;;19.83;40.08
15817;BME280;8009;50.070;8.232;2023-05-01T09:57:00;99794.06;;;19.78;39.87
15817;BME280;8009;50.070;8.232;2023-05-01T09:59:29;99794.16;;;19.61;39.15
15817;BME280;8009;50.070;8.232;2023-05-01T10:01:59;99784.63;;;19.80;38.06
15817;BME280;8009;50.070;8.232;2023-05-01T10:04:30;99791.34;;;20.24;36.96
15817;BME280;8009;50.070;8.232;2023-05-01T10:07:10;99780.38;;;19.38;36.35
15817;BME280;8009;50.070;8.232;2023-05-01T10:09:39;99780.03;;;19.81;37.46
15817;BME280;8009;50.070;8.232;2023-05-01T10:12:08;99774.28;;;20.36;37.43
15817;BME280;8009;50.070;8.232;2023-05-01T10:14:49;99779.84;;;20.05;38.80
15817;BME280;8009;50.070;8.232;2023-05-01T10:17:20;99778.38;;;20.17;36.80
15817;BME280;8009;50.070;8.232;2023-05-01T10:19:48;99772.41;;;19.91;40.60
15817;BME280;8009;50.070;8.232;2023-05-01T10:22:20;99784.34;;;19.36;39.04
15817;BME280;8009;50.070;8.232;2023-05-01T10:24:49;99785.78;;;19.55;41.47
15817;BME280;8009;50.070;8.232;2023-05-01T10:27:22;99785.84;;;19.46;40.70
15817;BME280;8009;50.070;8.232;2023-05-01T10:29:52;99780.38;;;19.78;41.10
15817;BME280;8009;50.070;8.232;2023-05-01T10:32:24;99778.91;;;19.59;40.58
15817;BME280;8009;50.070;8.232;2023-05-01T10:34:56;99787.13;;;19.59;39.90
15817;BME280;8009;50.070;8.232;2023-05-01T10:37:31;99780.50;;;19.84;38.56
15817;BME280;8009;50.070;8.232;2023-05-01T10:43:12;99778.13;;;19.81;38.74
15817;BME280;8009;50.070;8.232;2023-05-01T10:45:41;99780.06;;;19.95;38.65
15817;BME280;8009;50.070;8.232;2023-05-01T10:48:10;99770.16;;;19.94;38.56
15817;BME280;8009;50.070;8.232;2023-05-01T10:51:08;99765.56;;;20.33;38.66
15817;BME280;8009;50.070;8.232;2023-05-01T10:53:41;99765.28;;;20.51;37.85
15817;BME280;8009;50.070;8.232;2023-05-01T10:56:40;99768.53;;;20.08;37.25
15817;BME280;8009;50.070;8.232;2023-05-01T10:59:09;99760.66;;;20.66;37.94
15817;BME280;8009;50.070;8.232;2023-05-01T11:01:38;99749.22;;;20.62;38.42
15817;BME280;8009;50.070;8.232;2023-05-01T11:07:16;99754.63;;;20.85;39.16
15817;BME280;8009;50.070;8.232;2023-05-01T11:09:46;99752.06;;;20.31;38.61
15817;BME280;8009;50.070;8.232;2023-05-01T11:12:49;99754.50;;;20.26;38.42
15817;BME280;8009;50.070;8.232;2023-05-01T11:15:25;99749.22;;;20.39;39.17
15817;BME280;8009;50.070;8.232;2023-05-01T11:17:54;99747.66;;;19.84;38.06
15817;BME280;8009;50.070;8.232;2023-05-01T11:20:52;99743.38;;;19.82;38.92
15817;BME280;8009;50.070;8.232;2023-05-01T11:23:23;99750.47;;;20.14;38.60
15817;BME280;8009;50.070;8.232;2023-05-01T11:26:02;99739.84;;;19.73;39.01
15817;BME280;8009;50.070;8.232;2023-05-01T11:28:37;99738.03;;;19.88;40.47
15817;BME280;8009;50.070;8.232;2023-05-01T11:31:06;99739.59;;;19.83;37.41
15817;BME280;8009;50.070;8.232;2023-05-01T11:33:35;99733.03;;;20.30;38.60
15817;BME280;8009;50.070;8.232;2023-05-01T11:36:04;99730.72;;;20.04;39.11
15817;BME280;8009;50.070;8.232;2023-05-01T11:38:37;99734.72;;;19.93;39.57
15817;BME280;8009;50.070;8.232;2023-05-01T11:41:05;99728.53;;;20.14;36.55
15817;BME280;8009;50.070;8.232;2023-05-01T11:43:47;99730.81;;;20.10;36.88
15817;BME280;8009;50.070;8.232;2023-05-01T11:46:22;99725.25;;;19.72;40.01
15817;BME280;8009;50.070;8.232;2023-05-01T11:48:51;99725.31;;;19.64;39.87
15817;BME280;8009;50.070;8.232;2023-05-01T11:51:24;99721.84;;;20.16;39.04
15817;BME280;8009;50.070;8.232;2023-05-01T11:54:03;99715.78;;;19.83;41.69
15817;BME280;8009;50.070;8.232;2023-05-01T11:56:33;99725.69;;;19.53;41.95
15817;BME280;8009;50.070;8.232;2023-05-01T11:59:09;99730.66;;;19.66;40.86
15817;BME280;8009;50.070;8.232;2023-05-01T12:01:40;99730.88;;;19.48;39.27
15817;BME280;8009;50.070;8.232;2023-05-01T12:04:10;99721.94;;;19.62;38.39
15817;BME280;8009;50.070;8.232;2023-05-01T12:06:40;99721.56;;;20.11;39.60
15817;BME280;8009;50.070;8.232;2023-05-01T12:09:15;99728.19;;;20.17;40.59
15817;BME280;8009;50.070;8.232;2023-05-01T12:11:45;99721.28;;;20.21;39.92
15817;BME280;8009;50.070;8.232;2023-05-01T12:14:14;99721.69;;;20.33;37.73
15817;BME280;8009;50.070;8.232;2023-05-01T12:16:44;99719.31;;;20.30;38.27
15817;BME280;8009;50.070;8.232;2023-05-01T12:19:13;99723.84;;;19.85;39.80
15817;BME280;8009;50.070;8.232;2023-05-01T12:21:42;99713.81;;;20.53;38.15
15817;BME280;8009;50.070;8.232;2023-05-01T12:24:14;99716.53;;;20.38;40.73
15817;BME280;8009;50.070;8.232;2023-05-01T12:26:43;99714.34;;;20.10;37.98
15817;BME280;8009;50.070;8.232;2023-05-01T12:29:12;99715.34;;;19.71;38.69
15817;BME280;8009;50.070;8.232;2023-05-01T12:31:45;99701.19;;;20.43;38.66
15817;BME280;8009;50.070;8.232;2023-05-01T12:34:14;99707.59;;;20.21;38.59
15817;BME280;8009;50.070;8.232;2023-05-01T12:36:51;99705.72;;;20.36;38.17
15817;BME280;8009;50.070;8.232;2023-05-01T12:39:23;99707.47;;;20.52;40.35
15817;BME280;8009;50.070;8.232;2023-05-01T12:41:54;99711.13;;;20.44;38.01
15817;BME280;8009;50.070;8.232;2023-05-01T12:44:24;99709.72;;;20.49;39.18
15817;BME280;8009;50.070;8.232;2023-05-01T12:46:59;99712.34;;;20.27;39.92
15817;BME280;8009;50.070;8.232;2023-05-01T12:49:28;99707.72;;;20.28;38.98
15817;BME280;8009;50.070;8.232;2023-05-01T12:51:59;99704.59;;;19.93;41.51
15817;BME280;8009;50.070;8.232;2023-05-01T12:54:32;99705.47;;;20.08;40.61
15817;BME280;8009;50.070;8.232;2023-05-01T12:57:05;99699.81;;;20.10;42.01
15817;BME280;8009;50.070;8.232;2023-05-01T12:59:35;99699.00;;;20.24;40.55
15817;BME280;8009;50.070;8.232;2023-05-01T13:02:05;99706.97;;;20.34;40.13
15817;BME280;8009;50.070;8.232;2023-05-01T13:04:35;99700.50;;;20.50;38.71
15817;BME280;8009;50.070;8.232;2023-05-01T13:07:09;99693.41;;;20.55;39.11
15817;BME280;8009;50.070;8.232;2023-05-01T13:09:50;99696.91;;;19.88;41.32
15817;BME280;8009;50.070;8.232;2023-05-01T13:12:19;99694.16;;;20.11;41.92
15817;BME280;8009;50.070;8.232;2023-05-01T13:14:48;99693.47;;;20.09;40.83
15817;BME280;8009;50.070;8.232;2023-05-01T13:17:23;99678.75;;;19.64;41.82
15817;BME280;8009;50.070;8.232;2023-05-01T13:19:52;99686.13;;;19.64;41.63
15817;BME280;8009;50.070;8.232;2023-05-01T13:22:28;99686.88;;;19.81;42.43
15817;BME280;8009;50.070;8.232;2023-05-01T13:25:00;99684.84;;;20.35;40.49
15817;BME280;8009;50.070;8.232;2023-05-01T13:27:29;99681.66;;;20.09;39.99
15817;BME280;8009;50.070;8.232;2023-05-01T13:29:59;99684.59;;;20.07;40.37
15817;BME280;8009;50.070;8.232;2023-05-01T13:32:28;99686.53;;;19.53;41.38
15817;BME280;8009;50.070;8.232;2023-05-01T13:35:00;99683.16;;;19.74;41.26
15817;BME280;8009;50.070;8.232;2023-05-01T13:37:29;99679.88;;;19.78;42.53
15817;BME280;8009;50.070;8.232;2023-05-01T13:40:00;99685.28;;;19.63;40.31
15817;BME280;8009;50.070;8.232;2023-05-01T13:42:29;99682.94;;;19.52;42.46
15817;BME280;8009;50.070;8.232;2023-05-01T13:44:57;99690.63;;;19.26;42.40
15817;BME280;8009;50.070;8.232;2023-05-01T13:47:30;99687.19;;;19.32;42.72
15817;BME280;8009;50.070;8.232;2023-05-01T13:49:58;99690.72;;;19.40;43.17
15817;BME280;8009;50.070;8.232;2023-05-01T13:52:26;99686.63;;;19.36;43.44
15817;BME280;8009;50.070;8.232;2023-05-01T13:54:55;99690.03;;;19.07;41.28
15817;BME280;8009;50.070;8.232;2023-05-01T13:57:26;99694.13;;;18.56;42.87
15817;BME280;8009;50.070;8.232;2023-05-01T13:59:55;99692.91;;;18.58;42.58